createdAt,value
2023-03-15T00:00:37.231Z,28.48
2023-03-15T00:01:37.281Z,28.45
2023-03-15T00:02:37.409Z,28.47
2023-03-15T00:03:37.679Z,28.48
2023-03-15T00:04:37.372Z,28.50
2023-03-15T00:07:37.516Z,28.38
2023-03-15T00:08:37.644Z,28.38
2023-03-15T00:09:37.629Z,28.37
2023-03-15T00:10:37.673Z,28.40
2023-03-15T00:11:37.712Z,28.40
2023-03-15T00:12:37.764Z,28.40
2023-03-15T00:13:37.800Z,28.37
2023-03-15T00:14:37.833Z,28.33
2023-03-15T00:15:37.895Z,28.31
2023-03-15T00:16:37.889Z,28.38
2023-03-15T00:17:37.966Z,28.33
2023-03-15T00:18:37.989Z,28.28
2023-03-15T00:19:38.052Z,28.34
2023-03-15T00:20:38.077Z,28.34
2023-03-15T00:21:38.131Z,28.25
2023-03-15T00:22:38.166Z,28.28
2023-03-15T00:23:38.222Z,28.28
2023-03-15T00:24:38.268Z,28.27
2023-03-15T00:25:38.331Z,28.25
2023-03-15T00:26:38.348Z,28.24
2023-03-15T00:27:38.408Z,28.21
2023-03-15T00:28:38.401Z,28.21
2023-03-15T00:29:38.482Z,28.25
2023-03-15T00:30:38.489Z,28.23
2023-03-15T00:31:38.560Z,28.23
2023-03-15T00:33:38.645Z,28.21
2023-03-15T00:34:38.696Z,28.20
2023-03-15T00:35:38.784Z,28.20
2023-03-15T00:36:38.768Z,28.17
2023-03-15T00:37:38.827Z,28.17
2023-03-15T00:38:38.842Z,28.20
2023-03-15T00:39:38.883Z,28.18
2023-03-15T00:40:38.935Z,28.17
2023-03-15T00:41:38.981Z,28.14
2023-03-15T00:42:39.014Z,28.17
2023-03-15T00:45:39.131Z,28.18
2023-03-15T00:46:39.249Z,28.13
2023-03-15T00:48:39.318Z,28.11
2023-03-15T00:49:39.324Z,28.10
2023-03-15T00:50:39.385Z,28.11
2023-03-15T00:51:39.415Z,28.08
2023-03-15T00:52:39.551Z,28.10
2023-03-15T00:53:39.497Z,28.10
2023-03-15T00:54:39.566Z,28.07
2023-03-15T00:55:39.612Z,28.08
2023-03-15T00:56:39.675Z,28.07
2023-03-15T00:57:39.701Z,28.04
2023-03-15T00:59:39.797Z,28.05
2023-03-15T01:00:39.860Z,28.04
2023-03-15T01:01:39.922Z,28.00
2023-03-15T01:02:39.943Z,28.03
2023-03-15T01:03:39.972Z,28.06
2023-03-15T01:04:40.024Z,28.03
2023-03-15T01:05:40.091Z,28.00
2023-03-15T01:06:40.104Z,28.01
2023-03-15T01:07:40.172Z,27.94
2023-03-15T01:08:40.219Z,27.97
2023-03-15T01:09:40.251Z,27.95
2023-03-15T01:10:40.316Z,27.97
2023-03-15T01:11:40.346Z,27.97
2023-03-15T01:12:40.422Z,27.97
2023-03-15T01:13:40.429Z,28.00
2023-03-15T01:14:40.531Z,27.98
2023-03-15T01:15:40.560Z,27.93
2023-03-15T01:16:40.569Z,27.91
2023-03-15T01:17:40.619Z,27.92
2023-03-15T01:18:40.697Z,27.85
2023-03-15T01:19:40.769Z,27.87
2023-03-15T01:20:40.787Z,27.93
2023-03-15T01:21:40.839Z,27.90
2023-03-15T01:22:40.855Z,27.86
2023-03-15T01:23:40.904Z,27.88
2023-03-15T01:24:40.964Z,27.88
2023-03-15T01:25:40.985Z,27.86
2023-03-15T01:26:41.042Z,27.87
2023-03-15T01:27:41.112Z,27.82
2023-03-15T01:28:41.160Z,27.91
2023-03-15T01:29:41.170Z,27.83
2023-03-15T01:30:41.211Z,27.82
2023-03-15T01:31:41.304Z,27.79
2023-03-15T01:32:41.328Z,27.73
2023-03-15T01:33:41.379Z,27.79
2023-03-15T01:34:41.416Z,27.80
2023-03-15T01:35:41.481Z,27.77
2023-03-15T01:36:41.473Z,27.80
2023-03-15T01:37:41.507Z,27.78
2023-03-15T01:38:41.553Z,27.76
2023-03-15T01:39:41.613Z,27.73
2023-03-15T01:40:41.655Z,27.71
2023-03-15T01:41:41.760Z,27.74
2023-03-15T01:42:41.754Z,27.76
2023-03-15T01:43:41.775Z,27.70
2023-03-15T01:44:41.840Z,27.69
2023-03-15T01:45:41.905Z,27.74
2023-03-15T01:46:41.997Z,27.73
2023-03-15T01:47:42.017Z,27.67
2023-03-15T01:48:42.046Z,27.69
2023-03-15T01:49:42.085Z,27.70
2023-03-15T01:50:42.141Z,27.69
2023-03-15T01:51:42.136Z,27.63
2023-03-15T01:52:42.213Z,27.67
2023-03-15T01:53:42.242Z,27.66
2023-03-15T01:54:42.312Z,27.67
2023-03-15T01:55:42.348Z,27.64
2023-03-15T01:56:42.363Z,27.61
2023-03-15T01:57:42.436Z,27.64
2023-03-15T01:58:42.466Z,27.60
2023-03-15T01:59:42.528Z,27.60
2023-03-15T02:00:42.578Z,27.64
2023-03-15T02:01:42.598Z,27.59
2023-03-15T02:02:42.626Z,27.60
2023-03-15T02:03:42.672Z,27.52
2023-03-15T02:04:42.722Z,27.57
2023-03-15T02:05:42.764Z,27.62
2023-03-15T02:06:42.814Z,27.55
2023-03-15T02:07:42.830Z,27.55
2023-03-15T02:08:42.883Z,27.55
2023-03-15T02:09:42.934Z,27.49
2023-03-15T02:10:42.975Z,27.50
2023-03-15T02:11:43.028Z,27.57
2023-03-15T02:12:43.040Z,27.47
2023-03-15T02:13:43.168Z,27.50
2023-03-15T02:14:43.165Z,27.52
2023-03-15T02:15:43.203Z,27.49
2023-03-15T02:16:43.347Z,27.46
2023-03-15T02:17:43.325Z,27.47
2023-03-15T02:18:43.349Z,27.47
2023-03-15T02:19:43.411Z,27.47
2023-03-15T02:20:43.472Z,27.43
2023-03-15T02:21:43.521Z,27.46
2023-03-15T02:22:43.536Z,27.40
2023-03-15T02:23:43.589Z,27.45
2023-03-15T02:24:43.702Z,27.36
2023-03-15T02:25:43.696Z,27.40
2023-03-15T02:26:43.747Z,27.45
2023-03-15T02:27:43.784Z,27.37
2023-03-15T02:28:43.849Z,27.38
2023-03-15T02:29:43.897Z,27.39
2023-03-15T02:30:43.968Z,27.42
2023-03-15T02:31:44.126Z,27.36
2023-03-15T02:32:44.091Z,27.43
2023-03-15T02:33:44.733Z,27.31
2023-03-15T02:34:44.102Z,27.35
2023-03-15T02:35:44.197Z,27.32
2023-03-15T02:36:44.256Z,27.26
2023-03-15T02:37:44.289Z,27.29
2023-03-15T02:38:44.320Z,27.28
2023-03-15T02:39:44.349Z,27.31
2023-03-15T02:40:44.393Z,27.32
2023-03-15T02:41:44.484Z,27.31
2023-03-15T02:42:44.542Z,27.25
2023-03-15T02:43:44.550Z,27.28
2023-03-15T02:44:44.619Z,27.28
2023-03-15T02:45:44.673Z,27.28
2023-03-15T02:46:44.718Z,27.22
2023-03-15T02:47:44.748Z,27.24
2023-03-15T02:48:44.805Z,27.24
2023-03-15T02:49:44.839Z,27.26
2023-03-15T02:50:44.892Z,27.19
2023-03-15T02:51:44.914Z,27.17
2023-03-15T02:52:44.987Z,27.21
2023-03-15T02:53:45.041Z,27.14
2023-03-15T02:54:45.094Z,27.18
2023-03-15T02:56:45.167Z,27.17
2023-03-15T02:57:45.193Z,27.21
2023-03-15T02:58:45.245Z,27.12
2023-03-15T02:59:45.301Z,27.18
2023-03-15T03:00:45.344Z,27.08
2023-03-15T03:01:45.402Z,27.12
2023-03-15T03:02:45.480Z,27.10
2023-03-15T03:03:45.484Z,27.01
2023-03-15T03:04:45.533Z,27.02
2023-03-15T03:05:45.566Z,26.98
2023-03-15T03:06:45.639Z,26.97
2023-03-15T03:07:45.670Z,27.01
2023-03-15T03:08:45.741Z,26.99
2023-03-15T03:09:45.759Z,27.01
2023-03-15T03:10:45.818Z,27.01
2023-03-15T03:11:45.875Z,26.99
2023-03-15T03:12:45.918Z,26.95
2023-03-15T03:13:45.972Z,26.95
2023-03-15T03:14:46.007Z,26.94
2023-03-15T03:15:46.076Z,26.94
2023-03-15T03:16:46.128Z,26.95
2023-03-15T03:17:46.154Z,26.92
2023-03-15T03:18:46.198Z,26.97
2023-03-15T03:19:46.229Z,26.91
2023-03-15T03:20:46.320Z,26.90
2023-03-15T03:21:46.352Z,26.88
2023-03-15T03:22:46.392Z,26.88
2023-03-15T03:23:46.459Z,26.91
2023-03-15T03:24:46.514Z,26.90
2023-03-15T03:25:46.525Z,26.90
2023-03-15T03:26:46.584Z,26.91
2023-03-15T03:27:46.644Z,26.88
2023-03-15T03:28:46.685Z,26.87
2023-03-15T03:29:46.732Z,26.85
2023-03-15T03:30:46.871Z,26.81
2023-03-15T03:31:46.813Z,26.85
2023-03-15T03:32:46.915Z,26.85
2023-03-15T03:33:46.919Z,26.76
2023-03-15T03:34:46.956Z,26.82
2023-03-15T03:35:47.057Z,26.81
2023-03-15T03:36:47.062Z,26.78
2023-03-15T03:37:47.078Z,26.85
2023-03-15T03:38:47.140Z,26.85
2023-03-15T03:39:47.224Z,26.77
2023-03-15T03:40:47.266Z,26.82
2023-03-15T03:41:47.283Z,26.76
2023-03-15T03:46:47.518Z,26.74
2023-03-15T03:47:47.568Z,26.77
2023-03-15T03:48:47.608Z,26.77
2023-03-15T03:49:47.658Z,26.77
2023-03-15T03:50:47.667Z,26.70
2023-03-15T03:51:47.728Z,26.77
2023-03-15T03:52:47.760Z,26.79
2023-03-15T03:53:47.801Z,26.79
2023-03-15T03:54:47.881Z,26.70
2023-03-15T03:55:47.911Z,26.73
2023-03-15T03:56:47.948Z,26.74
2023-03-15T03:57:48.015Z,26.69
2023-03-15T03:58:48.035Z,26.73
2023-03-15T03:59:48.069Z,26.73
2023-03-15T04:00:48.122Z,26.69
2023-03-15T04:01:48.144Z,26.72
2023-03-15T04:02:48.243Z,26.72
2023-03-15T04:03:48.220Z,26.67
2023-03-15T04:04:48.400Z,26.67
2023-03-15T04:05:48.317Z,26.66
2023-03-15T04:06:48.380Z,26.65
2023-03-15T04:07:48.373Z,26.63
2023-03-15T04:08:48.411Z,26.59
2023-03-15T04:09:48.442Z,26.55
2023-03-15T04:10:48.524Z,26.58
2023-03-15T04:11:48.548Z,26.61
2023-03-15T04:12:48.559Z,26.55
2023-03-15T04:13:48.581Z,26.54
2023-03-15T04:14:48.627Z,26.51
2023-03-15T04:15:48.667Z,26.52
2023-03-15T04:16:48.696Z,26.48
2023-03-15T04:17:48.700Z,26.43
2023-03-15T04:18:48.732Z,26.43
2023-03-15T04:19:48.739Z,26.40
2023-03-15T04:20:48.753Z,26.35
2023-03-15T04:21:48.788Z,26.31
2023-03-15T04:22:48.792Z,26.31
2023-03-15T04:23:48.825Z,26.30
2023-03-15T04:24:48.846Z,26.33
2023-03-15T04:25:48.826Z,26.23
2023-03-15T04:26:48.863Z,26.26
2023-03-15T04:27:48.888Z,26.24
2023-03-15T04:28:48.852Z,26.22
2023-03-15T04:29:48.908Z,26.08
2023-03-15T04:30:48.893Z,26.11
2023-03-15T04:31:48.884Z,26.15
2023-03-15T04:32:48.946Z,26.09
2023-03-15T04:33:48.891Z,26.05
2023-03-15T04:34:48.905Z,25.99
2023-03-15T04:35:48.916Z,26.00
2023-03-15T04:36:48.878Z,25.96
2023-03-15T04:38:48.855Z,25.96
2023-03-15T04:39:48.872Z,25.96
2023-03-15T04:41:48.854Z,25.92
2023-03-15T04:42:48.854Z,25.87
2023-03-15T04:43:48.862Z,25.82
2023-03-15T04:44:48.866Z,25.80
2023-03-15T04:45:48.820Z,25.82
2023-03-15T04:46:48.876Z,25.79
2023-03-15T04:47:48.834Z,25.76
2023-03-15T04:51:48.844Z,25.74
2023-03-15T04:52:48.809Z,25.75
2023-03-15T04:53:48.832Z,25.72
2023-03-15T04:54:48.824Z,25.72
2023-03-15T04:55:48.809Z,25.75
2023-03-15T04:56:48.824Z,25.71
2023-03-15T04:57:48.822Z,25.74
2023-03-15T04:58:48.821Z,25.71
2023-03-15T04:59:48.861Z,25.67
2023-03-15T05:00:48.936Z,25.70
2023-03-15T05:01:48.829Z,25.68
2023-03-15T05:02:48.834Z,25.68
2023-03-15T05:03:48.806Z,25.70
2023-03-15T05:04:48.795Z,25.68
2023-03-15T05:05:48.813Z,25.67
2023-03-15T05:06:48.822Z,25.69
2023-03-15T05:07:48.817Z,25.63
2023-03-15T05:08:48.838Z,25.67
2023-03-15T05:09:48.811Z,25.64
2023-03-15T05:10:48.820Z,25.68
2023-03-15T05:11:48.808Z,25.62
2023-03-15T05:13:48.804Z,25.61
2023-03-15T05:14:48.842Z,25.71
2023-03-15T05:15:48.811Z,25.58
2023-03-15T05:16:48.830Z,25.57
2023-03-15T05:17:48.810Z,25.61
2023-03-15T05:18:48.803Z,25.58
2023-03-15T05:19:48.802Z,25.54
2023-03-15T05:20:48.824Z,25.55
2023-03-15T05:21:48.793Z,25.55
2023-03-15T05:22:48.821Z,25.57
2023-03-15T05:23:48.836Z,25.57
2023-03-15T05:24:48.791Z,25.58
2023-03-15T05:25:48.783Z,25.58
2023-03-15T05:26:48.795Z,25.58
2023-03-15T05:27:48.790Z,25.58
2023-03-15T05:28:48.796Z,25.62
2023-03-15T05:29:48.764Z,25.55
2023-03-15T05:30:48.769Z,25.57
2023-03-15T05:31:48.834Z,25.58
2023-03-15T05:32:48.872Z,25.55
2023-03-15T05:33:48.785Z,25.55
2023-03-15T05:34:48.843Z,25.54
2023-03-15T05:35:48.819Z,25.51
2023-03-15T05:36:48.757Z,25.49
2023-03-15T05:37:48.763Z,25.55
2023-03-15T05:38:48.770Z,25.48
2023-03-15T05:39:48.771Z,25.51
2023-03-15T05:41:48.869Z,25.52
2023-03-15T05:42:48.759Z,25.57
2023-03-15T05:43:48.758Z,25.49
2023-03-15T05:44:48.749Z,25.48
2023-03-15T05:45:48.855Z,25.47
2023-03-15T05:46:48.721Z,25.51
2023-03-15T05:47:48.735Z,25.44
2023-03-15T05:48:48.752Z,25.46
2023-03-15T05:49:48.726Z,25.45
2023-03-15T05:50:48.725Z,25.44
2023-03-15T05:51:48.756Z,25.46
2023-03-15T05:52:48.730Z,25.48
2023-03-15T05:53:48.720Z,25.45
2023-03-15T05:54:48.779Z,25.47
2023-03-15T05:55:48.732Z,25.43
2023-03-15T05:56:48.765Z,25.43
2023-03-15T05:57:48.774Z,25.46
2023-03-15T05:58:48.733Z,25.45
2023-03-15T05:59:48.773Z,25.43
2023-03-15T06:00:55.771Z,25.41
2023-03-15T06:02:48.764Z,25.41
2023-03-15T06:03:48.822Z,25.36
2023-03-15T06:04:48.723Z,25.42
2023-03-15T06:05:48.799Z,25.39
2023-03-15T06:06:48.732Z,25.40
2023-03-15T06:07:48.720Z,25.37
2023-03-15T06:08:48.761Z,25.37
2023-03-15T06:09:48.755Z,25.37
2023-03-15T06:10:48.706Z,25.37
2023-03-15T06:11:48.710Z,25.30
2023-03-15T06:12:48.772Z,25.35
2023-03-15T06:13:48.676Z,25.30
2023-03-15T06:14:48.688Z,25.33
2023-03-15T06:15:48.677Z,25.29
2023-03-15T06:16:48.685Z,25.32
2023-03-15T06:17:48.623Z,25.29
2023-03-15T06:18:48.657Z,25.27
2023-03-15T06:19:48.649Z,25.30
2023-03-15T06:20:48.630Z,25.30
2023-03-15T06:21:48.643Z,25.27
2023-03-15T06:22:48.600Z,25.25
2023-03-15T06:23:48.592Z,25.29
2023-03-15T06:24:48.593Z,25.26
2023-03-15T06:25:48.576Z,25.33
2023-03-15T06:26:48.603Z,25.25
2023-03-15T06:27:48.588Z,25.27
2023-03-15T06:28:48.587Z,25.27
2023-03-15T06:29:48.530Z,25.26
2023-03-15T06:30:48.639Z,25.26
2023-03-15T06:31:48.561Z,25.29
2023-03-15T06:32:48.557Z,24.39
2023-03-15T06:33:48.552Z,23.94
2023-03-15T06:34:48.542Z,22.83
2023-03-15T06:35:48.590Z,22.37
2023-03-15T06:36:48.524Z,22.31
2023-03-15T06:37:48.532Z,21.74
2023-03-15T06:38:48.544Z,23.81
2023-03-15T06:39:48.545Z,23.22
2023-03-15T06:40:48.814Z,22.59
2023-03-15T06:41:48.491Z,22.54
2023-03-15T06:42:48.474Z,23.61
2023-03-15T06:43:48.527Z,22.65
2023-03-15T06:44:50.137Z,22.27
2023-03-15T06:45:48.843Z,22.31
2023-03-15T06:46:55.754Z,22.02
2023-03-15T06:47:48.727Z,22.40
2023-03-15T06:48:48.705Z,23.01
2023-03-15T06:49:48.774Z,23.68
2023-03-15T06:50:48.786Z,23.50
2023-03-15T06:51:48.693Z,23.81
2023-03-15T06:52:48.677Z,24.01
2023-03-15T06:53:48.684Z,23.87
2023-03-15T06:54:48.703Z,23.42
2023-03-15T06:55:48.698Z,23.81
2023-03-15T06:56:48.674Z,23.96
2023-03-15T06:57:48.711Z,24.05
2023-03-15T06:58:48.664Z,24.30
2023-03-15T06:59:48.664Z,24.21
2023-03-15T07:00:48.634Z,23.89
2023-03-15T07:01:48.914Z,23.84
2023-03-15T07:02:48.805Z,23.93
2023-03-15T07:03:48.616Z,24.19
2023-03-15T07:04:48.612Z,24.02
2023-03-15T07:05:48.614Z,24.19
2023-03-15T07:06:48.798Z,23.90
2023-03-15T07:07:48.621Z,24.05
2023-03-15T07:08:48.591Z,23.99
2023-03-15T07:09:48.589Z,24.02
2023-03-15T07:10:48.564Z,24.27
2023-03-15T07:11:48.610Z,24.19
2023-03-15T07:12:48.622Z,24.46
2023-03-15T07:13:48.572Z,22.71
2023-03-15T07:14:48.559Z,21.30
2023-03-15T07:15:48.704Z,20.87
2023-03-15T07:16:48.853Z,20.54
2023-03-15T07:17:48.562Z,20.51
2023-03-15T07:18:48.531Z,21.52
2023-03-15T07:19:56.198Z,21.89
2023-03-15T07:20:49.539Z,22.12
2023-03-15T07:21:48.520Z,22.41
2023-03-15T07:22:48.535Z,21.89
2023-03-15T07:23:48.538Z,21.94
2023-03-15T07:24:48.511Z,22.50
2023-03-15T07:25:54.919Z,22.36
2023-03-15T07:26:49.474Z,22.24
2023-03-15T07:27:48.527Z,21.92
2023-03-15T07:28:48.463Z,22.20
2023-03-15T07:29:48.480Z,21.93
2023-03-15T07:30:48.443Z,22.32
2023-03-15T07:31:48.869Z,22.23
2023-03-15T07:32:48.586Z,21.53
2023-03-15T07:33:48.430Z,21.42
2023-03-15T07:34:48.476Z,22.03
2023-03-15T07:35:48.420Z,22.86
2023-03-15T07:36:48.812Z,22.21
2023-03-15T07:37:48.422Z,22.48
2023-03-15T07:38:48.392Z,22.98
2023-03-15T07:39:48.413Z,22.66
2023-03-15T07:40:48.396Z,21.98
2023-03-15T07:41:48.415Z,22.56
2023-03-15T07:42:48.380Z,23.16
2023-03-15T07:43:48.421Z,23.77
2023-03-15T07:44:48.537Z,23.75
2023-03-15T07:45:48.544Z,23.90
2023-03-15T07:46:48.842Z,23.79
2023-03-15T07:47:48.499Z,24.08
2023-03-15T07:48:48.557Z,24.25
2023-03-15T07:49:48.604Z,23.95
2023-03-15T07:50:48.670Z,24.09
2023-03-15T07:51:48.846Z,23.80
2023-03-15T07:52:48.837Z,23.74
2023-03-15T07:53:48.754Z,23.70
2023-03-15T07:54:48.787Z,23.59
2023-03-15T07:55:48.864Z,23.71
2023-03-15T07:56:48.862Z,24.24
2023-03-15T07:57:50.363Z,23.94
2023-03-15T07:58:48.908Z,24.24
2023-03-15T07:59:48.998Z,24.24
2023-03-15T08:00:48.819Z,24.25
2023-03-15T08:01:48.849Z,24.38
2023-03-15T08:02:48.857Z,24.32
2023-03-15T08:03:48.783Z,24.55
2023-03-15T08:04:48.783Z,24.59
2023-03-15T08:05:48.776Z,24.54
2023-03-15T08:06:48.789Z,24.36
2023-03-15T08:07:48.800Z,24.12
2023-03-15T08:08:48.792Z,24.11
2023-03-15T08:09:48.777Z,23.47
2023-03-15T08:10:48.737Z,23.57
2023-03-15T08:11:48.731Z,23.50
2023-03-15T08:12:48.874Z,23.29
2023-03-15T08:13:48.728Z,23.15
2023-03-15T08:14:48.697Z,23.24
2023-03-15T08:15:48.715Z,22.10
2023-03-15T08:16:48.715Z,22.11
2023-03-15T08:17:48.705Z,23.15
2023-03-15T08:18:48.728Z,23.13
2023-03-15T08:19:48.673Z,22.53
2023-03-15T08:20:48.688Z,22.90
2023-03-15T08:21:48.699Z,23.06
2023-03-15T08:22:48.861Z,23.06
2023-03-15T08:23:48.702Z,23.37
2023-03-15T08:24:48.720Z,23.13
2023-03-15T08:25:48.770Z,23.04
2023-03-15T08:26:48.616Z,22.98
2023-03-15T08:27:48.631Z,22.94
2023-03-15T08:28:48.628Z,22.80
2023-03-15T08:29:48.689Z,22.77
2023-03-15T08:30:48.650Z,22.81
2023-03-15T08:31:48.668Z,21.59
2023-03-15T08:32:48.885Z,21.08
2023-03-15T08:33:48.605Z,21.49
2023-03-15T08:34:48.574Z,21.08
2023-03-15T08:35:48.617Z,21.34
2023-03-15T08:36:48.667Z,21.61
2023-03-15T08:37:48.760Z,21.75
2023-03-15T08:38:48.692Z,20.78
2023-03-15T08:39:48.714Z,19.72
2023-03-15T08:40:48.762Z,20.38
2023-03-15T08:41:48.769Z,20.79
2023-03-15T08:42:48.866Z,21.20
2023-03-15T08:43:48.759Z,21.40
2023-03-15T08:44:48.771Z,21.48
2023-03-15T08:46:00.054Z,21.42
2023-03-15T08:46:49.895Z,21.85
2023-03-15T08:47:48.874Z,21.20
2023-03-15T08:48:48.816Z,21.55
2023-03-15T08:49:48.812Z,21.97
2023-03-15T08:50:48.797Z,21.26
2023-03-15T08:51:48.802Z,21.58
2023-03-15T08:52:48.897Z,21.35
2023-03-15T08:53:48.810Z,21.57
2023-03-15T08:54:48.780Z,21.59
2023-03-15T08:55:48.770Z,21.54
2023-03-15T08:56:48.755Z,21.59
2023-03-15T08:57:48.830Z,21.73
2023-03-15T08:58:48.761Z,21.61
2023-03-15T08:59:48.813Z,21.72
2023-03-15T09:00:48.797Z,21.69
2023-03-15T09:01:48.904Z,21.89
2023-03-15T09:02:48.932Z,21.94
2023-03-15T09:03:48.931Z,21.74
2023-03-15T09:04:48.990Z,21.60
2023-03-15T09:05:49.048Z,21.92
2023-03-15T09:06:49.131Z,21.73
2023-03-15T09:07:49.167Z,21.73
2023-03-15T09:08:49.215Z,21.78
2023-03-15T09:09:49.260Z,22.00
2023-03-15T09:10:49.295Z,21.93
2023-03-15T09:11:49.379Z,21.91
2023-03-15T09:12:49.386Z,22.07
2023-03-15T09:13:49.423Z,21.60
2023-03-15T09:14:49.465Z,22.05
2023-03-15T09:15:49.511Z,22.03
2023-03-15T09:16:49.575Z,22.32
2023-03-15T09:17:49.925Z,22.22
2023-03-15T09:18:49.602Z,22.81
2023-03-15T09:19:49.615Z,22.60
2023-03-15T09:20:49.631Z,22.22
2023-03-15T09:21:49.663Z,22.57
2023-03-15T09:22:49.739Z,22.24
2023-03-15T09:23:49.757Z,22.08
2023-03-15T09:24:50.458Z,22.04
2023-03-15T09:25:49.877Z,22.18
2023-03-15T09:26:49.824Z,21.80
2023-03-15T09:27:49.910Z,22.04
2023-03-15T09:28:50.917Z,21.49
2023-03-15T09:29:49.907Z,21.04
2023-03-15T09:30:50.468Z,21.14
2023-03-15T09:31:49.804Z,19.20
2023-03-15T09:32:49.919Z,19.34
2023-03-15T09:33:49.907Z,19.74
2023-03-15T09:34:49.811Z,19.60
2023-03-15T09:35:49.833Z,19.23
2023-03-15T09:36:49.834Z,19.52
2023-03-15T09:37:49.841Z,19.20
2023-03-15T09:38:49.857Z,18.74
2023-03-15T09:39:49.955Z,18.94
2023-03-15T09:40:49.957Z,19.19
2023-03-15T09:41:50.019Z,17.70
2023-03-15T09:42:50.006Z,17.65
2023-03-15T09:43:50.417Z,17.41
2023-03-15T09:44:50.034Z,17.54
2023-03-15T09:45:50.036Z,18.06
2023-03-15T09:46:50.117Z,17.85
2023-03-15T09:47:50.118Z,18.50
2023-03-15T09:48:50.118Z,18.39
2023-03-15T09:49:50.100Z,17.80
2023-03-15T09:50:50.141Z,17.02
2023-03-15T09:51:50.087Z,19.65
2023-03-15T09:52:50.148Z,19.45
2023-03-15T09:53:50.420Z,20.13
2023-03-15T09:54:50.125Z,20.56
2023-03-15T09:55:50.123Z,20.71
2023-03-15T09:56:50.183Z,20.76
2023-03-15T09:57:50.138Z,20.53
2023-03-15T09:58:50.435Z,20.39
2023-03-15T09:59:50.208Z,20.94
2023-03-15T10:00:50.254Z,21.23
2023-03-15T10:01:50.203Z,20.72
2023-03-15T10:02:50.268Z,21.08
2023-03-15T10:03:50.458Z,20.99
2023-03-15T10:04:50.255Z,21.11
2023-03-15T10:05:50.265Z,21.26
2023-03-15T10:06:50.278Z,20.73
2023-03-15T10:07:50.365Z,20.50
2023-03-15T10:08:50.451Z,19.09
2023-03-15T10:09:50.406Z,19.10
2023-03-15T10:10:50.405Z,19.18
2023-03-15T10:11:50.367Z,17.72
2023-03-15T10:12:50.417Z,17.43
2023-03-15T10:13:50.392Z,16.77
2023-03-15T10:15:50.435Z,18.36
2023-03-15T10:16:50.414Z,18.24
2023-03-15T10:17:50.370Z,17.91
2023-03-15T10:18:50.370Z,18.66
2023-03-15T10:19:50.383Z,18.42
2023-03-15T10:20:50.381Z,18.31
2023-03-15T10:21:50.358Z,18.08
2023-03-15T10:22:50.359Z,19.77
2023-03-15T10:23:50.468Z,20.36
2023-03-15T10:24:50.395Z,23.42
2023-03-15T10:25:50.386Z,20.80
2023-03-15T10:26:50.405Z,20.10
2023-03-15T10:27:50.377Z,20.78
2023-03-15T10:28:50.405Z,19.35
2023-03-15T10:29:50.396Z,18.71
2023-03-15T10:30:50.388Z,18.15
2023-03-15T10:31:50.451Z,18.21
2023-03-15T10:32:50.406Z,18.62
2023-03-15T10:33:50.370Z,17.97
2023-03-15T10:34:50.365Z,17.62
2023-03-15T10:35:52.488Z,15.12
2023-03-15T10:36:51.400Z,15.34
2023-03-15T10:37:50.389Z,13.94
2023-03-15T10:38:50.399Z,13.53
2023-03-15T10:39:50.399Z,14.47
2023-03-15T10:40:50.324Z,13.40
2023-03-15T10:41:50.383Z,13.33
2023-03-15T10:42:50.398Z,13.58
2023-03-15T10:47:59.601Z,12.42
2023-03-15T10:48:51.324Z,11.26
2023-03-15T10:49:50.351Z,12.00
2023-03-15T10:51:50.292Z,13.44
2023-03-15T10:52:51.489Z,12.93
2023-03-15T10:53:50.455Z,14.24
2023-03-15T10:54:55.404Z,15.39
2023-03-15T10:55:51.285Z,15.52
2023-03-15T10:56:50.293Z,17.09
2023-03-15T10:57:50.278Z,17.82
2023-03-15T10:59:09.146Z,17.68
2023-03-15T10:59:51.268Z,17.49
2023-03-15T11:00:50.327Z,17.80
2023-03-15T11:01:50.384Z,16.93
2023-03-15T11:02:50.326Z,17.87
2023-03-15T11:03:50.436Z,16.59
2023-03-15T11:04:50.240Z,16.42
2023-03-15T11:05:50.241Z,16.53
2023-03-15T11:06:50.194Z,17.74
2023-03-15T11:07:50.209Z,17.46
2023-03-15T11:08:50.190Z,17.34
2023-03-15T11:09:50.183Z,17.17
2023-03-15T11:10:50.174Z,15.95
2023-03-15T11:11:50.154Z,15.49
2023-03-15T11:12:50.166Z,15.34
2023-03-15T11:13:50.245Z,16.30
2023-03-15T11:14:50.259Z,16.32
2023-03-15T11:15:50.402Z,17.18
2023-03-15T11:16:50.429Z,16.82
2023-03-15T11:17:50.442Z,16.26
2023-03-15T11:18:50.433Z,16.53
2023-03-15T11:19:50.498Z,16.02
2023-03-15T11:20:50.532Z,16.00
2023-03-15T11:21:50.559Z,16.37
2023-03-15T11:22:50.588Z,17.15
2023-03-15T11:23:50.626Z,16.75
2023-03-15T11:24:51.005Z,16.83
2023-03-15T11:25:50.669Z,16.76
2023-03-15T11:26:50.678Z,16.17
2023-03-15T11:28:50.649Z,16.25
2023-03-15T11:29:50.689Z,16.60
2023-03-15T11:30:50.672Z,16.51
2023-03-15T11:31:50.715Z,16.63
2023-03-15T11:32:50.806Z,16.45
2023-03-15T11:34:50.964Z,17.25
2023-03-15T11:35:50.811Z,17.00
2023-03-15T11:36:58.709Z,17.20
2023-03-15T11:37:51.836Z,17.14
2023-03-15T11:38:51.469Z,16.73
2023-03-15T11:39:53.732Z,16.99
2023-03-15T11:40:51.841Z,17.12
2023-03-15T11:41:50.810Z,16.99
2023-03-15T11:42:50.824Z,16.73
2023-03-15T11:43:50.782Z,16.79
2023-03-15T11:44:50.808Z,17.20
2023-03-15T11:45:50.813Z,17.02
2023-03-15T11:46:50.865Z,16.79
2023-03-15T11:47:50.895Z,16.52
2023-03-15T11:48:50.954Z,16.55
2023-03-15T11:49:51.058Z,16.85
2023-03-15T11:50:51.081Z,16.73
2023-03-15T11:51:51.169Z,17.34
2023-03-15T11:52:51.206Z,17.14
2023-03-15T11:53:51.291Z,17.52
2023-03-15T11:54:51.309Z,17.10
2023-03-15T11:55:51.357Z,16.96
2023-03-15T11:56:51.441Z,17.52
2023-03-15T11:57:51.505Z,17.12
2023-03-15T11:58:51.585Z,16.75
2023-03-15T11:59:51.651Z,16.86
2023-03-15T12:00:51.714Z,16.39
2023-03-15T12:01:51.966Z,16.93
2023-03-15T12:02:51.821Z,16.51
2023-03-15T12:03:51.871Z,16.38
2023-03-15T12:04:51.926Z,16.79
2023-03-15T12:05:52.047Z,16.26
2023-03-15T12:06:52.051Z,16.44
2023-03-15T12:07:52.131Z,16.49
2023-03-15T12:08:52.217Z,16.63
2023-03-15T12:09:52.306Z,16.37
2023-03-15T12:10:52.279Z,16.84
2023-03-15T12:11:52.355Z,16.78
2023-03-15T12:12:52.425Z,16.75
2023-03-15T12:13:52.483Z,16.78
2023-03-15T12:14:52.557Z,17.04
2023-03-15T12:15:52.728Z,16.84
2023-03-15T12:16:52.670Z,16.75
2023-03-15T12:17:52.742Z,16.70
2023-03-15T12:18:52.837Z,16.60
2023-03-15T12:19:52.890Z,16.58
2023-03-15T12:20:52.920Z,16.44
2023-03-15T12:21:53.044Z,16.40
2023-03-15T12:22:53.065Z,16.40
2023-03-15T12:23:53.084Z,16.52
2023-03-15T12:24:53.457Z,16.24
2023-03-15T12:25:55.270Z,15.79
2023-03-15T12:26:53.306Z,15.82
2023-03-15T12:27:53.309Z,15.37
2023-03-15T12:28:53.361Z,15.69
2023-03-15T12:29:53.545Z,15.98
2023-03-15T12:30:53.397Z,16.26
2023-03-15T12:31:53.395Z,16.05
2023-03-15T12:32:53.440Z,16.28
2023-03-15T12:33:53.358Z,16.32
2023-03-15T12:34:53.475Z,16.35
2023-03-15T12:35:53.403Z,16.50
2023-03-15T12:36:53.365Z,16.59
2023-03-15T12:37:53.392Z,16.52
2023-03-15T12:38:53.357Z,16.64
2023-03-15T12:39:53.347Z,16.67
2023-03-15T12:40:53.374Z,16.71
2023-03-15T12:41:53.386Z,16.73
2023-03-15T12:42:53.390Z,16.75
2023-03-15T12:43:53.422Z,16.71
2023-03-15T12:44:53.421Z,16.84
2023-03-15T12:45:53.487Z,16.82
2023-03-15T12:46:53.535Z,16.81
2023-03-15T12:47:53.520Z,16.82
2023-03-15T12:48:53.610Z,16.89
2023-03-15T12:49:53.596Z,16.88
2023-03-15T12:50:53.613Z,16.93
2023-03-15T12:51:53.668Z,16.93
2023-03-15T12:52:53.650Z,16.97
2023-03-15T12:53:53.653Z,16.99
2023-03-15T12:54:53.738Z,17.07
2023-03-15T12:55:59.470Z,17.01
2023-03-15T12:56:54.727Z,17.07
2023-03-15T12:57:53.764Z,17.08
2023-03-15T12:58:53.723Z,17.14
2023-03-15T12:59:53.694Z,17.18
2023-03-15T13:00:53.679Z,17.13
2023-03-15T13:01:53.682Z,17.16
2023-03-15T13:02:53.769Z,17.25
2023-03-15T13:03:53.697Z,17.19
2023-03-15T13:04:53.676Z,17.28
2023-03-15T13:06:03.407Z,17.26
2023-03-15T13:06:54.658Z,17.29
2023-03-15T13:07:53.654Z,17.31
2023-03-15T13:08:53.665Z,17.33
2023-03-15T13:09:53.640Z,17.37
2023-03-15T13:10:53.658Z,17.36
2023-03-15T13:11:53.662Z,17.42
2023-03-15T13:12:53.622Z,17.40
2023-03-15T13:13:53.613Z,17.42
2023-03-15T13:14:53.598Z,17.45
2023-03-15T13:15:53.681Z,17.42
2023-03-15T13:16:53.587Z,17.51
2023-03-15T13:17:53.597Z,17.52
2023-03-15T13:18:53.591Z,17.53
2023-03-15T13:19:53.657Z,17.57
2023-03-15T13:20:53.630Z,17.64